Leonardo Figueiredo

Olheiro-Chefe - Juventude
11 Mar 2027
Quinta-feira
Processo

Personalidade

Adaptabilidade (11) Ambição (14) Controvérsia (16) Lealdade (3) Pressão (6) Profissionalismo (8) Espírito Esportivo (2) Temperamento (19)

Perfil

Estilo de Treinamento Democrático
Licença Nacional A
Determinação 7
Gestão de Pessoas 9
Motivação 9
Disciplina 4
Satisfação no Trabalho
50%
Fadiga
0%
Função Olheiro-Chefe
Salário 68.6K p/s
Contrato 14.03.2029

Desempenho

Comportamento Normal
Eficácia do Treinamento
26%
Desenvolvimento do Jogador
20%
Prevenção de Lesões
25%
Implementação Tática
55%

Eventos Recentes

Avaliou um jogador agora
Participou de uma reunião de recrutamento agora
Participou de uma reunião de recrutamento agora
Participou de uma reunião de recrutamento agora
Participou de uma reunião de recrutamento agora
Recomendou um alvo de transferência agora
Recomendou um alvo de transferência agora
Recomendou um alvo de transferência agora

Monitorando agora

192
Jogador Clube Status Habilidade Confiança Observado Última observação Último voto
Salvador Blopá Sporting CP Ativo 112 / 124 40% 3 10.03.2027 -
André Lacximicant Estoril Praia Ativo 122 / 111 40% 2 10.03.2027 -
Tom Cannon Sheffield United Ativo 136 / 127 40% 3 10.03.2027 -
Othmane Maamma Watford Ativo 119 / 134 40% 1 10.03.2027 -
Lovro Zvonarek Estrela da Amadora Ativo 114 / 123 40% 1 10.03.2027 -
Jackson Muleka Konyaspor Ativo 138 / 126 40% 1 10.03.2027 -
Alfonso Trezza Arouca Ativo 119 / 122 40% 5 08.03.2027 -
Figueiredo Alverca Ativo 128 / 122 40% 2 08.03.2027 -
Dawda Camara Alverca Ativo 111 / 113 40% 5 08.03.2027 -
Assane Diao Como Ativo 146 / 156 40% 1 06.03.2027 -
Mohamed-Ali Cho Hull City Ativo 135 / 133 40% 1 06.03.2027 -
Kwame Opoku Asante Kotoko Ativo 93 / 97 40% 1 06.03.2027 -
Leandro Martins Benfica Ativo 96 / 89 40% 3 05.03.2027 -
Christ Inao Oulaï Fiorentina Ativo 138 / 136 40% 1 05.03.2027 -
Edwin Asamoah Berekum Chelsea Ativo 80 / 92 40% 1 05.03.2027 -
Gustavo Silva Vitoria Guimaraes Ativo 130 / 119 40% 2 03.03.2027 -
Pablo Rodríguez Lech Ativo 133 / 132 40% 3 03.03.2027 -
Morufdeen Moshood Leixões Ativo 104 / 104 40% 1 03.03.2027 -
Daniel Awuni Aduana Stars Ativo 86 / 91 40% 1 03.03.2027 -
Rocco Vata Watford Ativo 129 / 127 40% 1 03.03.2027 -
Raymond Agyemang Aduana Stars Ativo 78 / 82 40% 1 01.03.2027 -
Cheveyo Tsawa Club Brugge Ativo 114 / 127 40% 1 01.03.2027 -
Ilyas Ansah Hull City Ativo 118 / 127 40% 1 27.02.2027 -
Jonathan Dellarossa Lokomotiv Plovdiv Ativo 122 / 121 40% 1 27.02.2027 -
Morgan Whittaker Middlesbrough Ativo 124 / 138 40% 3 26.02.2027 -
Lucas Duarte Felgueiras Ativo 98 / 110 40% 2 26.02.2027 -
Dylan Nandín Arouca Ativo 112 / 107 40% 2 26.02.2027 -
Yanis Begraoui Estoril Praia Ativo 127 / 139 40% 7 25.02.2027 -
Sam Greenwood Bristol City Ativo 111 / 114 40% 2 25.02.2027 -
Rafael Lobato Rio Ave Ativo 115 / 119 40% 1 25.02.2027 -
Ethan Williams Peterborough United Ativo 119 / 115 40% 1 25.02.2027 -
Jalen Blesa Rio Ave Ativo 108 / 114 40% 6 23.02.2027 -
Aune Heggebø West Bromwich Albion Ativo 120 / 132 40% 3 23.02.2027 -
Sorriso Famalicao Ativo 137 / 128 40% 5 22.02.2027 -
Duk Atlas Ativo 111 / 117 40% 1 21.02.2027 -
Lucas Varaldo Morelia Ativo 111 / 120 40% 1 21.02.2027 -
Ianis Stoica Estrela da Amadora Ativo 111 / 113 40% 2 20.02.2027 -
William Gomes Porto Ativo 150 / 149 40% 5 20.02.2027 -
Justo Giani Umraniyespor Ativo 131 / 114 40% 2 20.02.2027 -
André Miranda Porto Ativo 94 / 108 40% 1 20.02.2027 -
Vinícius Lopes Santa Clara Ativo 133 / 126 40% 3 19.02.2027 -
Josh Coburn Millwall Ativo 109 / 114 40% 2 19.02.2027 -
Eduardo Fernandes Benfica Ativo 109 / 109 40% 1 17.02.2027 -
Luphumlo Sifumba Maritzburg United Ativo 80 / 93 40% 1 17.02.2027 -
Camilo Durán Bloemfontein Celtic Ativo 130 / 122 40% 1 16.02.2027 -
Luccas Paraízo Leixões Ativo 104 / 114 40% 1 16.02.2027 -
Luis Vázquez Birmingham Ativo 137 / 128 40% 1 14.02.2027 -
Negueba Mirassol Ativo 126 / 117 40% 4 13.02.2027 -
Percy Vilakazi Free State Stars Ativo 123 / 101 40% 2 13.02.2027 -
Víctor Guzmán Sporting CP Ativo 100 / 104 40% 2 12.02.2027 -
Etiosa Ighodaro Kaizer Chiefs Ativo 97 / 119 40% 1 12.02.2027 -
Tamble Monteiro Rio Ave Ativo 121 / 122 40% 1 11.02.2027 -
Victor Froholdt Porto Ativo 139 / 162 40% 5 10.02.2027 -
Lewis Miley Newcastle United Ativo 132 / 158 40% 2 10.02.2027 -
Giorgos Koutsias Famalicao Ativo 120 / 122 40% 2 10.02.2027 -
Calum Agius Crewe Alexandra Ativo 93 / 91 40% 1 10.02.2027 -
Eddie Nketiah Crystal Palace Ativo 136 / 139 40% 2 08.02.2027 -
Aaron Connolly Leyton Orient Ativo 135 / 122 40% 1 08.02.2027 -
Bojan Radulović Huddersfield Town Ativo 105 / 121 40% 1 08.02.2027 -
Mathias Jørgensen Blackburn Rovers Ativo 112 / 117 40% 1 07.02.2027 -
Malik Mothersille Stockport County Ativo 105 / 110 40% 1 06.02.2027 -
Nathan Fogaça Fortaleza Ativo 117 / 117 40% 6 05.02.2027 -
Leandro Antonetti Estrela da Amadora Ativo 112 / 110 40% 1 05.02.2027 -
Gabriel Silva Braga Ativo 133 / 125 40% 2 04.02.2027 -
Rhian Brewster Oleksandriya Ativo 111 / 117 40% 1 03.02.2027 -
Henrique Araújo Casa Pia Ativo 121 / 115 40% 1 02.02.2027 -
Tyreece Campbell Charlton Athletic Ativo 124 / 120 40% 1 01.02.2027 -
Tiago Leite Felgueiras Ativo 107 / 96 40% 1 01.02.2027 -
Tiago Freitas Benfica Ativo 117 / 113 40% 3 31.01.2027 -
Alpha Touré FC Metz Ativo 104 / 112 40% 1 31.01.2027 -
Rivaldo Mkhize Black Aces Ativo 71 / 92 40% 1 31.01.2027 -
Henrique Silva Santa Clara Ativo 108 / 118 40% 2 30.01.2027 -
Milan Roganović Racing Genk Ativo 114 / 125 40% 1 30.01.2027 -
Caleb Yirenkyi Coventry City Ativo 125 / 130 40% 3 29.01.2027 -
Jenson Jones Walsall Ativo 98 / 104 40% 1 29.01.2027 -
Kazunari Kita Real Sociedad Ativo 105 / 103 40% 1 29.01.2027 -
Toni Tamarit Alverca Ativo 109 / 120 40% 2 28.01.2027 -
Ivan Giraldo Valencia Ativo 125 / 121 40% 1 28.01.2027 -
Bernardo Lima Porto Ativo 107 / 100 40% 1 27.01.2027 -
Gonçalo Oliveira Benfica Ativo 120 / 115 40% 1 27.01.2027 -
João Teixeira Porto Ativo 114 / 111 40% 4 26.01.2027 -
Surprise Manthosi Polokwane City Ativo 101 / 96 40% 1 26.01.2027 -
Moncef Zekri Sporting CP Ativo 86 / 99 40% 2 25.01.2027 -
Germán Barbas Burgos Ativo 114 / 120 40% 2 24.01.2027 -
Lucas Høgsberg RC Strasbourg Ativo 140 / 148 40% 2 21.01.2027 -
Dayann Methalie Sunderland Ativo 141 / 134 40% 1 21.01.2027 -
James Dornelly Peterborough United Ativo 97 / 113 40% 1 18.01.2027 -
Diogo Monteiro Tondela Ativo 104 / 108 40% 1 17.01.2027 -
Kyriani Sabbe Club Brugge Ativo 131 / 121 40% 1 17.01.2027 -
Martim Fernandes Porto Ativo 136 / 134 40% 1 15.01.2027 -
François Gaillard Tours Ativo 126 / 139 40% 1 15.01.2027 -
Ivan M'Bahia Clermont Foot Ativo 112 / 120 40% 2 12.01.2027 -
Miguel Figueiredo Benfica Ativo 117 / 111 40% 2 10.01.2027 -
James Bacca La Equidad Ativo 123 / 131 40% 1 10.01.2027 -
Pape Diong Westerlo Ativo 103 / 113 40% 1 09.01.2027 -
José Silva Gil Vicente Ativo 110 / 109 40% 1 04.01.2027 -
Abraham Marcus Estrela da Amadora Ativo 117 / 121 40% 4 22.12.2026 -
El Hadji Malick Diouf Brentford Ativo 151 / 150 40% 1 03.12.2026 -
Patrick Berg Lecce Ativo 141 / 141 62% 1 01.12.2026 Aprovar
Sampson Dweh Mallorca Ativo 133 / 134 66% 1 01.12.2026 Aprovar
Mao Hosoya Olympique de Marseille Ativo 134 / 135 67% 1 01.12.2026 Aprovar
Tobias Mohr Standard Liege Perdido 117 / 117 68% 1 01.12.2026 -
Pau Víctor Braga Ativo 129 / 138 40% 5 29.11.2026 -
Jordan van der Gaag Leiria Ativo 118 / 115 40% 3 29.11.2026 -
Lorougnon Gohi Académico de Viseu Ativo 123 / 115 40% 4 29.11.2026 -
Beni Mukendi Vitoria Guimaraes Ativo 120 / 134 40% 2 27.11.2026 -
Finn van Breemen Famalicao Ativo 117 / 123 40% 3 27.11.2026 -
Paulo Moreira Nacional Ativo 119 / 114 40% 2 27.11.2026 -
Nuno Santos Mamelodi Sundowns Ativo 142 / 135 40% 3 27.11.2026 -
Loum Tchaouna Coventry City Ativo 136 / 146 40% 3 23.11.2026 -
Mario Dorgeles Braga Ativo 141 / 141 40% 4 23.11.2026 -
Simo Maritimo Ativo 116 / 106 40% 3 22.11.2026 -
Jordan Holsgrove Estoril Praia Ativo 129 / 132 40% 4 22.11.2026 -
Taichi Fukui Arouca Ativo 132 / 127 40% 2 21.11.2026 -
Tom Fellows Southampton Ativo 141 / 136 40% 2 21.11.2026 -
Gabriel Pec Cruzeiro Ativo 126 / 137 40% 1 19.11.2026 -
Marc Baró Leiria Ativo 111 / 106 40% 1 18.11.2026 -
Cristian Ferreira Académico de Viseu Ativo 108 / 116 40% 5 17.11.2026 -
Juan María Alcedo Torreense Ativo 111 / 116 40% 5 16.11.2026 -
Tyrhys Dolan Espanyol Ativo 138 / 147 40% 1 16.11.2026 -
Roberto Fernández Braga Ativo 132 / 146 40% 5 13.11.2026 Observar
Mateja Stjepanović Moreirense Ativo 111 / 122 40% 2 12.11.2026 Mais informações
Ricard Sánchez Estoril Praia Ativo 116 / 133 40% 6 08.11.2026 -
Gianluca Prestianni Benfica Ativo 133 / 133 40% 4 08.11.2026 -
Bongani Zungu Ajax Cape Town Ativo 115 / 128 40% 1 08.11.2026 -
Víctor Gómez Braga Ativo 130 / 141 40% 4 07.11.2026 -
Iker Benito Queretaro Ativo 129 / 125 40% 2 05.11.2026 -
Laurent De Ketelaere Utrecht Ativo 150 / 150 40% 2 05.11.2026 -
Danilo Botafogo Ativo 138 / 132 40% 2 04.11.2026 -
Rafik Guitane Estoril Praia Ativo 132 / 131 40% 2 04.11.2026 -
Gustavo Martins Grêmio Ativo 124 / 119 40% 2 04.11.2026 -
Miguel Baeza Nacional Ativo 126 / 111 40% 1 04.11.2026 -
Jack Clarke Ipswich Town Ativo 139 / 128 40% 1 03.11.2026 -
Soma Anzai FC Tokyo Ativo 112 / 118 40% 4 01.11.2026 -
Caio Alexandre Bahia Ativo 135 / 129 40% 1 01.11.2026 -
Juan Pablo Freytes Fluminense Ativo 131 / 127 40% 1 01.11.2026 -
MT Santa Clara Ativo 114 / 121 40% 1 30.10.2026 -
Bradley Zwane SuperSport United Ativo 123 / 112 40% 1 29.10.2026 -
Miguel Reisinho Feirense Ativo 114 / 117 40% 1 29.10.2026 -
Brenner Santa Clara Ativo 100 / 104 40% 1 28.10.2026 -
Finn Azaz Southampton Ativo 137 / 116 40% 1 27.10.2026 -
Carlos Forbs Club Brugge Ativo 134 / 139 40% 1 26.10.2026 -
Ole Pohlmann Rio Ave Ativo 125 / 123 40% 4 25.10.2026 -
Mathias De Amorim Famalicao Ativo 142 / 125 40% 2 24.10.2026 -
Pedro Maranhão Tondela Ativo 103 / 110 40% 1 23.10.2026 -
Chiquinho Alverca Ativo 130 / 126 40% 3 22.10.2026 -
Martinelli Fluminense Ativo 145 / 144 40% 1 22.10.2026 Mais informações
Marvin Elimbi Gil Vicente Ativo 123 / 114 40% 1 22.10.2026 -
Naïs Djouahra Arouca Ativo 121 / 126 40% 1 22.10.2026 -
Joe Hodge Tondela Ativo 119 / 121 40% 1 21.10.2026 -
David Sousa Casa Pia Ativo 130 / 116 40% 2 20.10.2026 -
Jefferson Duque Cortulua Ativo 132 / 118 40% 1 18.10.2026 -
Manu Pozo Torreense Ativo 120 / 110 40% 2 17.10.2026 -
Diego Lainez Tigres Ativo 135 / 133 40% 2 14.10.2026 -
Valery Académico de Viseu Ativo 120 / 119 40% 1 12.10.2026 -
Gustaf Lagerbielke Braga Ativo 147 / 131 40% 1 12.10.2026 -
Rodrigo Pinheiro Famalicao Ativo 140 / 127 40% 2 09.10.2026 -
João Mendes Vitoria Guimaraes Ativo 123 / 118 40% 5 08.10.2026 -
Jean-Baptiste Gorby Braga Ativo 130 / 124 40% 2 03.10.2026 -
Francisco Moura Porto Ativo 146 / 127 40% 1 03.10.2026 -
Martín Tejón Maritimo Ativo 120 / 112 40% 1 02.10.2026 -
Xavi Sintes Estoril Praia Ativo 136 / 132 40% 1 29.09.2026 -
Gonçalo Nogueira Vitoria Guimaraes Ativo 116 / 127 40% 1 29.09.2026 -
Luciano Juba Bahia Ativo 140 / 130 40% 1 29.09.2026 -
Malik Sellouki Rio Ave Ativo 97 / 105 40% 1 28.09.2026 -
Carlos Álvarez Club America Ativo 128 / 132 40% 1 25.09.2026 -
Diogo Travassos Braga Ativo 118 / 118 40% 2 24.09.2026 -
Luan Patrick Estrela da Amadora Ativo 122 / 113 40% 1 24.09.2026 -
Tetê Grêmio Ativo 121 / 131 40% 1 21.09.2026 -
Marco Pašalić Orlando City Ativo 130 / 129 40% 1 20.09.2026 -
Roni AVS Ativo 121 / 113 40% 1 19.09.2026 -
Matheus Dias Nacional Ativo 113 / 119 40% 2 17.09.2026 -
Vasco Moreira Alverca Ativo 121 / 116 40% 1 17.09.2026 -
Andreas Schjelderup Benfica Ativo 125 / 147 40% 1 17.09.2026 -
Ousmane Diomande Nottingham Forest Ativo 152 / 161 40% 1 17.09.2026 -
Hugo Pérez Torreense Ativo 105 / 120 40% 1 16.09.2026 -
Tony Strata Vitoria Guimaraes Ativo 114 / 131 40% 1 16.09.2026 -
Telasco Segovia Inter Miami CF Ativo 127 / 135 40% 1 15.09.2026 -
Weverson Gil Vicente Ativo 103 / 111 40% 1 13.09.2026 -
Pedro Porro Tottenham Ativo 132 / 144 40% 2 11.09.2026 -
Santi García Gil Vicente Ativo 131 / 136 40% 1 11.09.2026 -
Francisco Domingues Moreirense Ativo 104 / 109 40% 1 10.09.2026 -
Luis Sinisterra Cruzeiro Ativo 145 / 144 40% 1 09.09.2026 -
Zé Vitor Benfica Ativo 134 / 135 40% 1 08.09.2026 -
João Carvalho Estoril Praia Ativo 125 / 128 40% 1 05.08.2026 -
Demir Ege Tıknaz Braga Ativo 126 / 118 40% 1 04.08.2026 -
Antonio Sivera Alavés Ativo 154 / 135 40% 1 03.08.2026 -
Luis Malagón Club America Ativo 134 / 131 40% 1 03.08.2026 -
Matheus Mendes Alverca Ativo 111 / 112 40% 1 02.08.2026 -
Ignacio de Arruabarrena Arouca Ativo 115 / 133 40% 1 02.08.2026 -
Kaique Sporting CP Ativo 114 / 111 40% 1 01.08.2026 -
Patrick Sequeira Casa Pia Ativo 135 / 119 40% 1 01.08.2026 -